createdAt,value
2022-11-20T10:35:47.279Z,98428.28
2022-11-20T10:38:31.044Z,98431.59
2022-11-20T10:41:21.396Z,98438.13
2022-11-20T10:43:52.947Z,98434.56
2022-11-20T10:46:23.672Z,98439.69
2022-11-20T10:48:51.741Z,98442.28
2022-11-20T10:51:42.846Z,98441.91
2022-11-20T10:54:44.965Z,98440.78
2022-11-20T10:57:25.314Z,98439.41
2022-11-20T11:00:02.777Z,98437.22
2022-11-20T11:02:40.211Z,98430.81
2022-11-20T11:05:31.075Z,98426.50
2022-11-20T11:08:00.206Z,98423.78
2022-11-20T11:10:55.987Z,98424.81
2022-11-20T11:13:28.571Z,98410.78
2022-11-20T11:15:55.889Z,98414.91
2022-11-20T11:18:28.296Z,98401.72
2022-11-20T11:20:57.224Z,98406.75
2022-11-20T11:23:39.299Z,98397.16
2022-11-20T11:26:23.935Z,98404.88
2022-11-20T11:29:02.204Z,98401.16
2022-11-20T11:31:29.807Z,98396.03
2022-11-20T11:34:13.346Z,98404.88
2022-11-20T11:36:40.631Z,98407.28
2022-11-20T11:39:15.418Z,98401.91
2022-11-20T11:41:42.684Z,98402.47
2022-11-20T11:44:59.887Z,98400.09
2022-11-20T11:47:30.697Z,98391.38
2022-11-20T11:50:09.486Z,98397.31
2022-11-20T11:52:44.965Z,98391.66
2022-11-20T11:55:26.417Z,98388.84
2022-11-20T11:58:06.091Z,98381.25
2022-11-20T12:00:35.306Z,98389.66
2022-11-20T12:03:14.497Z,98393.38
2022-11-20T12:05:48.181Z,98389.13
2022-11-20T12:08:39.817Z,98387.84
2022-11-20T12:11:21.003Z,98396.28
2022-11-20T12:13:55.536Z,98390.34
2022-11-20T12:16:22.572Z,98389.44
2022-11-20T12:18:52.609Z,98390.78
2022-11-20T12:21:25.502Z,98392.75
2022-11-20T12:24:14.023Z,98390.59
2022-11-20T12:27:14.494Z,98386.16
2022-11-20T12:29:59.376Z,98380.59
2022-11-20T12:32:53.203Z,98376.13
2022-11-20T12:35:30.222Z,98367.94
2022-11-20T12:38:24.356Z,98366.66
2022-11-20T12:41:35.518Z,98370.09
2022-11-20T12:44:58.163Z,98375.31
2022-11-20T12:47:49.497Z,98372.72
2022-11-20T12:50:29.285Z,98371.16
2022-11-20T12:53:33.692Z,98363.19
2022-11-20T12:56:12.387Z,98354.47
2022-11-20T12:59:07.413Z,98370.84
2022-11-20T13:01:51.336Z,98358.59
2022-11-20T13:04:39.804Z,98358.75
2022-11-20T13:07:14.317Z,98363.63
2022-11-20T13:09:46.873Z,98365.94
2022-11-20T13:12:25.304Z,98374.59
2022-11-20T13:15:01.864Z,98372.22
2022-11-20T13:18:03.561Z,98367.47
2022-11-20T13:20:32.407Z,98369.84
2022-11-20T13:22:59.899Z,98370.69
2022-11-20T13:25:35.298Z,98368.94
2022-11-20T13:28:06.064Z,98364.88
2022-11-20T13:30:32.909Z,98370.41
2022-11-20T13:33:02.234Z,98369.91
2022-11-20T13:35:36.155Z,98373.91
2022-11-20T13:38:08.598Z,98376.25
2022-11-20T13:40:38.284Z,98371.28
2022-11-20T13:43:36.241Z,98360.09
2022-11-20T13:46:05.757Z,98353.66
2022-11-20T13:48:45.484Z,98361.41
2022-11-20T13:51:14.867Z,98360.56
2022-11-20T13:53:44.435Z,98364.03
2022-11-20T13:56:19.717Z,98358.75
2022-11-20T13:58:55.739Z,98365.31
2022-11-20T14:01:30.958Z,98356.69
2022-11-20T14:04:06.591Z,98357.34
2022-11-20T14:06:42.172Z,98360.72
2022-11-20T14:09:13.947Z,98361.56
2022-11-20T14:11:48.890Z,98359.19
2022-11-20T14:14:22.169Z,98356.25
2022-11-20T14:16:50.350Z,98355.63
2022-11-20T14:19:31.342Z,98343.72
2022-11-20T14:22:19.651Z,98342.31
2022-11-20T14:24:47.195Z,98345.72
2022-11-20T14:27:16.648Z,98344.63
2022-11-20T14:29:44.511Z,98352.44
2022-11-20T14:32:11.657Z,98343.72
2022-11-20T14:34:44.473Z,98342.56
2022-11-20T14:37:21.033Z,98336.19
2022-11-20T14:39:56.682Z,98324.91
2022-11-20T14:42:25.842Z,98328.44
2022-11-20T14:44:56.122Z,98333.13
2022-11-20T14:47:26.943Z,98324.03
2022-11-20T14:49:56.022Z,98315.97
2022-11-20T14:52:25.067Z,98313.13
2022-11-20T14:54:54.650Z,98308.81
2022-11-20T14:57:30.201Z,98310.59
2022-11-20T15:00:15.322Z,98309.91
2022-11-20T15:02:47.741Z,98295.91
2022-11-20T15:05:15.981Z,98293.13
2022-11-20T15:07:46.933Z,98281.47
